SVA1015 OEJN-OKKK
Flight info
| Callsign | SVA1015 |
|---|---|
| Flight time | 1h 42m |
| Altitude | 37000 |
| Route | EGREP B417 HFR A788 KFR |
| Aircraft | B77W/H-SDE1E2E3FGHIJ2J3J4J5M1RWXY/LB1D1 |
Departure
| Time | 2026-05-03 21:19 |
|---|---|
| Airport | King Abdulaziz International Airport (OEJN) |
Arrival
| Time | 2026-05-03 23:01 |
|---|---|
| Airport | Kuwait International Airport (OKKK) |
| Time | Latitude | Longitude | Altitude | Speed | Heading |
|---|---|---|---|---|---|
| 2026-05-03 20:52 | 21.67366 | 39.16671 | 44 ft | 0 kts | 256° |
| 2026-05-03 21:10 | 21.67368 | 39.16682 | 43 ft | 3 kts | 260° |
| 2026-05-03 21:10 | 21.67368 | 39.16697 | 45 ft | 3 kts | 276° |
| 2026-05-03 21:10 | 21.67366 | 39.16718 | 45 ft | 3 kts | 275° |
| 2026-05-03 21:10 | 21.67365 | 39.16740 | 45 ft | 3 kts | 276° |
| 2026-05-03 21:11 | 21.67362 | 39.16761 | 46 ft | 3 kts | 282° |
| 2026-05-03 21:11 | 21.67360 | 39.16770 | 46 ft | 0 kts | 284° |
| 2026-05-03 21:15 | 21.67361 | 39.16768 | 46 ft | 1 kts | 284° |
| 2026-05-03 21:15 | 21.67364 | 39.16755 | 46 ft | 3 kts | 289° |
| 2026-05-03 21:16 | 21.67364 | 39.16754 | 46 ft | 0 kts | 289° |
| 2026-05-03 21:16 | 21.66682 | 39.18038 | 63 ft | 0 kts | 340° |
| 2026-05-03 21:18 | 21.66713 | 39.18026 | 61 ft | 25 kts | 340° |
| 2026-05-03 21:18 | 21.67161 | 39.17847 | 52 ft | 110 kts | 339° |
| 2026-05-03 21:18 | 21.68110 | 39.17476 | 52 ft | 180 kts | 341° |
| 2026-05-03 21:18 | 21.69433 | 39.17023 | 511 ft | 192 kts | 342° |
| 2026-05-03 21:19 | 21.70610 | 39.16630 | 1653 ft | 174 kts | 344° |
| 2026-05-03 21:19 | 21.71838 | 39.16326 | 1948 ft | 194 kts | 350° |
| 2026-05-03 21:19 | 21.73258 | 39.16058 | 2199 ft | 214 kts | 353° |
| 2026-05-03 21:19 | 21.74785 | 39.16125 | 2406 ft | 235 kts | 15° |
| 2026-05-03 21:20 | 21.76341 | 39.16908 | 2744 ft | 253 kts | 33° |
| 2026-05-03 21:20 | 21.77791 | 39.17991 | 3280 ft | 262 kts | 36° |
| 2026-05-03 21:20 | 21.79285 | 39.19169 | 3869 ft | 271 kts | 36° |
| 2026-05-03 21:20 | 21.80820 | 39.20385 | 4506 ft | 277 kts | 36° |
| 2026-05-03 21:21 | 21.82390 | 39.21623 | 5195 ft | 282 kts | 35° |
| 2026-05-03 21:21 | 21.83978 | 39.22865 | 5824 ft | 283 kts | 35° |
| 2026-05-03 21:21 | 21.85591 | 39.24119 | 5982 ft | 290 kts | 34° |
| 2026-05-03 21:21 | 21.87231 | 39.25394 | 5982 ft | 290 kts | 34° |
| 2026-05-03 21:22 | 21.88866 | 39.26658 | 5980 ft | 288 kts | 34° |
| 2026-05-03 21:22 | 21.90490 | 39.27913 | 6004 ft | 285 kts | 34° |
| 2026-05-03 21:22 | 21.92083 | 39.29146 | 6401 ft | 281 kts | 34° |
| 2026-05-03 21:22 | 21.93692 | 39.30386 | 6982 ft | 288 kts | 34° |
| 2026-05-03 21:23 | 21.95385 | 39.31583 | 7561 ft | 295 kts | 31° |
| 2026-05-03 21:23 | 21.97142 | 39.32738 | 8133 ft | 297 kts | 30° |
| 2026-05-03 21:23 | 21.98917 | 39.33893 | 8800 ft | 301 kts | 30° |
| 2026-05-03 21:23 | 22.00724 | 39.35075 | 9458 ft | 304 kts | 30° |
| 2026-05-03 21:24 | 22.02539 | 39.36263 | 10045 ft | 308 kts | 30° |
| 2026-05-03 21:24 | 22.04402 | 39.37486 | 10443 ft | 323 kts | 31° |
| 2026-05-03 21:24 | 22.06389 | 39.38793 | 10611 ft | 345 kts | 31° |
| 2026-05-03 21:24 | 22.08498 | 39.40188 | 10785 ft | 367 kts | 31° |
| 2026-05-03 21:25 | 22.10726 | 39.41665 | 11069 ft | 384 kts | 31° |
| 2026-05-03 21:25 | 22.13039 | 39.43200 | 11636 ft | 393 kts | 32° |
| 2026-05-03 21:25 | 22.15358 | 39.44738 | 12369 ft | 398 kts | 32° |
| 2026-05-03 21:25 | 22.17724 | 39.46310 | 13001 ft | 400 kts | 32° |
| 2026-05-03 21:26 | 22.20126 | 39.47904 | 13019 ft | 405 kts | 32° |
| 2026-05-03 21:26 | 22.22533 | 39.49501 | 13037 ft | 404 kts | 32° |
| 2026-05-03 21:26 | 22.24911 | 39.51078 | 13435 ft | 409 kts | 32° |
| 2026-05-03 21:26 | 22.27345 | 39.52695 | 14298 ft | 411 kts | 31° |
| 2026-05-03 21:27 | 22.29791 | 39.54320 | 15153 ft | 413 kts | 31° |
| 2026-05-03 21:27 | 22.32143 | 39.56114 | 15756 ft | 417 kts | 44° |
| 2026-05-03 21:27 | 22.33864 | 39.58615 | 16348 ft | 420 kts | 62° |
| 2026-05-03 21:27 | 22.35234 | 39.61448 | 16897 ft | 429 kts | 62° |
| 2026-05-03 21:28 | 22.36643 | 39.64286 | 17635 ft | 432 kts | 62° |
| 2026-05-03 21:28 | 22.38080 | 39.67117 | 18374 ft | 436 kts | 61° |
| 2026-05-03 21:28 | 22.39581 | 39.70044 | 19037 ft | 441 kts | 61° |
| 2026-05-03 21:28 | 22.41072 | 39.72939 | 19693 ft | 446 kts | 61° |
| 2026-05-03 21:29 | 22.42595 | 39.75896 | 20329 ft | 451 kts | 61° |
| 2026-05-03 21:29 | 22.44133 | 39.78887 | 20972 ft | 455 kts | 61° |
| 2026-05-03 21:29 | 22.45662 | 39.81858 | 21632 ft | 458 kts | 60° |
| 2026-05-03 21:29 | 22.47493 | 39.84720 | 22096 ft | 465 kts | 46° |
| 2026-05-03 21:30 | 22.49877 | 39.87099 | 22525 ft | 468 kts | 40° |
| 2026-05-03 21:30 | 22.52380 | 39.89396 | 23060 ft | 472 kts | 39° |
| 2026-05-03 21:30 | 22.54863 | 39.91650 | 23679 ft | 474 kts | 39° |
| 2026-05-03 21:30 | 22.57399 | 39.93975 | 24199 ft | 478 kts | 40° |
| 2026-05-03 21:31 | 22.59931 | 39.96331 | 24635 ft | 483 kts | 40° |
| 2026-05-03 21:31 | 22.62485 | 39.98740 | 25061 ft | 488 kts | 40° |
| 2026-05-03 21:31 | 22.65042 | 40.01174 | 25519 ft | 492 kts | 40° |
| 2026-05-03 21:31 | 22.67616 | 40.03637 | 25967 ft | 496 kts | 40° |
| 2026-05-03 21:32 | 22.70221 | 40.06132 | 26391 ft | 500 kts | 40° |
| 2026-05-03 21:32 | 22.72831 | 40.08637 | 26823 ft | 503 kts | 40° |
| 2026-05-03 21:32 | 22.75432 | 40.11135 | 27199 ft | 507 kts | 40° |
| 2026-05-03 21:32 | 22.78105 | 40.13701 | 27595 ft | 511 kts | 40° |
| 2026-05-03 21:33 | 22.80779 | 40.16267 | 27957 ft | 515 kts | 40° |
| 2026-05-03 21:33 | 22.83483 | 40.18862 | 28310 ft | 519 kts | 40° |
| 2026-05-03 21:33 | 22.86169 | 40.21439 | 28668 ft | 522 kts | 40° |
| 2026-05-03 21:33 | 22.88907 | 40.24069 | 29008 ft | 526 kts | 40° |
| 2026-05-03 21:34 | 22.91664 | 40.26718 | 29327 ft | 529 kts | 40° |
| 2026-05-03 21:34 | 22.94404 | 40.29353 | 29608 ft | 533 kts | 40° |
| 2026-05-03 21:34 | 22.97187 | 40.32031 | 29888 ft | 536 kts | 40° |
| 2026-05-03 21:34 | 22.99989 | 40.34729 | 30208 ft | 538 kts | 40° |
| 2026-05-03 21:35 | 23.02802 | 40.37440 | 30587 ft | 538 kts | 40° |
| 2026-05-03 21:35 | 23.05573 | 40.40112 | 31031 ft | 537 kts | 40° |
| 2026-05-03 21:35 | 23.08368 | 40.42809 | 31434 ft | 537 kts | 40° |
| 2026-05-03 21:35 | 23.11177 | 40.45521 | 31859 ft | 537 kts | 39° |
| 2026-05-03 21:36 | 23.13966 | 40.48215 | 32258 ft | 536 kts | 39° |
| 2026-05-03 21:36 | 23.16734 | 40.50890 | 32649 ft | 536 kts | 39° |
| 2026-05-03 21:36 | 23.19520 | 40.53583 | 32976 ft | 536 kts | 39° |
| 2026-05-03 21:36 | 23.22322 | 40.56294 | 33348 ft | 536 kts | 39° |
| 2026-05-03 21:37 | 23.25105 | 40.58988 | 33725 ft | 535 kts | 39° |
| 2026-05-03 21:37 | 23.27865 | 40.61686 | 34083 ft | 534 kts | 41° |
| 2026-05-03 21:37 | 23.30477 | 40.64505 | 34411 ft | 535 kts | 44° |
| 2026-05-03 21:37 | 23.33072 | 40.67444 | 34749 ft | 535 kts | 44° |
| 2026-05-03 21:38 | 23.35633 | 40.70393 | 35064 ft | 535 kts | 45° |
| 2026-05-03 21:38 | 23.38205 | 40.73359 | 35169 ft | 539 kts | 44° |
| 2026-05-03 21:38 | 23.43391 | 40.79305 | 35203 ft | 538 kts | 44° |
| 2026-05-03 21:39 | 23.48522 | 40.85150 | 35198 ft | 534 kts | 44° |
| 2026-05-03 21:39 | 23.53662 | 40.91002 | 35207 ft | 533 kts | 44° |
| 2026-05-03 21:40 | 23.58758 | 40.96815 | 35208 ft | 532 kts | 44° |
| 2026-05-03 21:40 | 23.63854 | 41.02638 | 35208 ft | 533 kts | 44° |
| 2026-05-03 21:41 | 23.68993 | 41.08516 | 35202 ft | 534 kts | 44° |
| 2026-05-03 21:41 | 23.74132 | 41.14398 | 35197 ft | 535 kts | 44° |
| 2026-05-03 21:42 | 23.79237 | 41.20247 | 35193 ft | 536 kts | 44° |
| 2026-05-03 21:42 | 23.84410 | 41.26183 | 35195 ft | 536 kts | 44° |
| 2026-05-03 21:43 | 23.89533 | 41.32070 | 35194 ft | 536 kts | 44° |
| 2026-05-03 21:43 | 23.94644 | 41.37949 | 35193 ft | 535 kts | 44° |
| 2026-05-03 21:44 | 23.99799 | 41.43879 | 35190 ft | 535 kts | 44° |
| 2026-05-03 21:44 | 24.04919 | 41.49780 | 35176 ft | 535 kts | 44° |
| 2026-05-03 21:45 | 24.10018 | 41.55664 | 35189 ft | 535 kts | 44° |
| 2026-05-03 21:45 | 24.15140 | 41.61582 | 35186 ft | 536 kts | 44° |
| 2026-05-03 21:46 | 24.20291 | 41.67543 | 35181 ft | 537 kts | 44° |
| 2026-05-03 21:46 | 24.25409 | 41.73473 | 35171 ft | 538 kts | 44° |
| 2026-05-03 21:47 | 24.30553 | 41.79440 | 35165 ft | 538 kts | 44° |
| 2026-05-03 21:47 | 24.35863 | 41.85220 | 35168 ft | 535 kts | 39° |
| 2026-05-03 21:48 | 24.41438 | 41.90608 | 35170 ft | 535 kts | 38° |
| 2026-05-03 21:48 | 24.47066 | 41.96010 | 35164 ft | 536 kts | 38° |
| 2026-05-03 21:49 | 24.52625 | 42.01408 | 35151 ft | 536 kts | 39° |
| 2026-05-03 21:49 | 24.57273 | 42.05952 | 35137 ft | 536 kts | 39° |
| 2026-05-03 21:50 | 24.63761 | 42.12305 | 35128 ft | 536 kts | 39° |
| 2026-05-03 21:50 | 24.68405 | 42.16857 | 35120 ft | 536 kts | 39° |
| 2026-05-03 21:51 | 24.73947 | 42.22290 | 35121 ft | 536 kts | 39° |
| 2026-05-03 21:51 | 24.79530 | 42.27773 | 35121 ft | 536 kts | 39° |
| 2026-05-03 21:52 | 24.85123 | 42.33273 | 35118 ft | 537 kts | 39° |
| 2026-05-03 21:52 | 24.90677 | 42.38739 | 35125 ft | 538 kts | 39° |
| 2026-05-03 21:53 | 24.96204 | 42.44189 | 35122 ft | 539 kts | 39° |
| 2026-05-03 21:53 | 25.01777 | 42.49688 | 35133 ft | 540 kts | 39° |
| 2026-05-03 21:54 | 25.07383 | 42.55230 | 35136 ft | 542 kts | 39° |
| 2026-05-03 21:54 | 25.13011 | 42.60804 | 35136 ft | 543 kts | 39° |
| 2026-05-03 21:55 | 25.18609 | 42.66352 | 35136 ft | 543 kts | 39° |
| 2026-05-03 21:55 | 25.24243 | 42.71941 | 35129 ft | 543 kts | 39° |
| 2026-05-03 21:56 | 25.29835 | 42.77498 | 35122 ft | 544 kts | 39° |
| 2026-05-03 21:56 | 25.35463 | 42.83099 | 35119 ft | 544 kts | 39° |
| 2026-05-03 21:57 | 25.41098 | 42.88714 | 35124 ft | 543 kts | 39° |
| 2026-05-03 21:57 | 25.46687 | 42.94290 | 35116 ft | 543 kts | 39° |
| 2026-05-03 21:58 | 25.52311 | 42.99909 | 35124 ft | 543 kts | 39° |
| 2026-05-03 21:58 | 25.57901 | 43.05489 | 35117 ft | 544 kts | 39° |
| 2026-05-03 21:59 | 25.63532 | 43.11107 | 35110 ft | 544 kts | 39° |
| 2026-05-03 21:59 | 25.69126 | 43.16699 | 35111 ft | 543 kts | 39° |
| 2026-05-03 22:00 | 25.74731 | 43.22311 | 35113 ft | 543 kts | 39° |
| 2026-05-03 22:00 | 25.80348 | 43.27945 | 35099 ft | 543 kts | 39° |
| 2026-05-03 22:01 | 25.85951 | 43.33578 | 35107 ft | 543 kts | 39° |
| 2026-05-03 22:01 | 25.91539 | 43.39212 | 35101 ft | 543 kts | 39° |
| 2026-05-03 22:02 | 25.97103 | 43.44833 | 35096 ft | 543 kts | 39° |
| 2026-05-03 22:02 | 26.02688 | 43.50479 | 35081 ft | 543 kts | 39° |
| 2026-05-03 22:03 | 26.08280 | 43.56139 | 35103 ft | 544 kts | 39° |
| 2026-05-03 22:03 | 26.13901 | 43.61837 | 35099 ft | 545 kts | 39° |
| 2026-05-03 22:04 | 26.19494 | 43.67516 | 35099 ft | 546 kts | 39° |
| 2026-05-03 22:04 | 26.25123 | 43.73237 | 35079 ft | 546 kts | 39° |
| 2026-05-03 22:05 | 26.30709 | 43.78930 | 35096 ft | 547 kts | 40° |
| 2026-05-03 22:05 | 26.36116 | 43.84894 | 35076 ft | 549 kts | 43° |
| 2026-05-03 22:06 | 26.41439 | 43.91026 | 35086 ft | 549 kts | 43° |
| 2026-05-03 22:06 | 26.46767 | 43.97104 | 35100 ft | 548 kts | 43° |
| 2026-05-03 22:07 | 26.52139 | 44.03170 | 35097 ft | 548 kts | 42° |
| 2026-05-03 22:07 | 26.57472 | 44.09189 | 35090 ft | 548 kts | 42° |
| 2026-05-03 22:08 | 26.62835 | 44.15258 | 35094 ft | 547 kts | 42° |
| 2026-05-03 22:08 | 26.68195 | 44.21334 | 35060 ft | 547 kts | 42° |
| 2026-05-03 22:09 | 26.73523 | 44.27385 | 35061 ft | 547 kts | 43° |
| 2026-05-03 22:10 | 26.81549 | 44.36514 | 35062 ft | 548 kts | 43° |
| 2026-05-03 22:10 | 26.86871 | 44.42579 | 35063 ft | 549 kts | 43° |
| 2026-05-03 22:11 | 26.92235 | 44.48703 | 35068 ft | 549 kts | 43° |
| 2026-05-03 22:11 | 26.97566 | 44.54798 | 35070 ft | 550 kts | 43° |
| 2026-05-03 22:12 | 27.02950 | 44.60970 | 35065 ft | 556 kts | 43° |
| 2026-05-03 22:12 | 27.08378 | 44.67222 | 35066 ft | 565 kts | 43° |
| 2026-05-03 22:13 | 27.13901 | 44.73589 | 35064 ft | 572 kts | 43° |
| 2026-05-03 22:13 | 27.19492 | 44.80021 | 35064 ft | 577 kts | 43° |
| 2026-05-03 22:14 | 27.25075 | 44.86447 | 35056 ft | 581 kts | 43° |
| 2026-05-03 22:14 | 27.30755 | 44.93001 | 35054 ft | 584 kts | 43° |
| 2026-05-03 22:15 | 27.36406 | 44.99535 | 35044 ft | 586 kts | 43° |
| 2026-05-03 22:15 | 27.42109 | 45.06137 | 35046 ft | 587 kts | 43° |
| 2026-05-03 22:16 | 27.47795 | 45.12733 | 35045 ft | 587 kts | 43° |
| 2026-05-03 22:16 | 27.53455 | 45.19306 | 35042 ft | 586 kts | 43° |
| 2026-05-03 22:17 | 27.59254 | 45.25791 | 35040 ft | 584 kts | 39° |
| 2026-05-03 22:17 | 27.65231 | 45.31931 | 35040 ft | 582 kts | 38° |
| 2026-05-03 22:18 | 27.71227 | 45.38051 | 35035 ft | 582 kts | 39° |
| 2026-05-03 22:18 | 27.77218 | 45.44260 | 35035 ft | 582 kts | 39° |
| 2026-05-03 22:19 | 27.83157 | 45.50451 | 35037 ft | 582 kts | 39° |
| 2026-05-03 22:19 | 27.89097 | 45.56699 | 35035 ft | 583 kts | 41° |
| 2026-05-03 22:20 | 27.94757 | 45.63245 | 35039 ft | 584 kts | 43° |
| 2026-05-03 22:20 | 28.00371 | 45.69942 | 35036 ft | 584 kts | 43° |
| 2026-05-03 22:21 | 28.05960 | 45.76567 | 35036 ft | 584 kts | 43° |
| 2026-05-03 22:21 | 28.11521 | 45.83123 | 35018 ft | 558 kts | 43° |
| 2026-05-03 22:21 | 28.14156 | 45.86229 | 35009 ft | 542 kts | 43° |
| 2026-05-03 22:22 | 28.16757 | 45.89295 | 35022 ft | 537 kts | 42° |
| 2026-05-03 22:22 | 28.21932 | 45.95391 | 35034 ft | 537 kts | 42° |
| 2026-05-03 22:23 | 28.27087 | 46.01487 | 35034 ft | 536 kts | 43° |
| 2026-05-03 22:23 | 28.32188 | 46.07644 | 35030 ft | 537 kts | 49° |
| 2026-05-03 22:23 | 28.34296 | 46.11168 | 35038 ft | 540 kts | 60° |
| 2026-05-03 22:24 | 28.35899 | 46.15040 | 35044 ft | 540 kts | 69° |
| 2026-05-03 22:24 | 28.36979 | 46.19134 | 35034 ft | 539 kts | 81° |
| 2026-05-03 22:24 | 28.37585 | 46.23280 | 35046 ft | 539 kts | 83° |
| 2026-05-03 22:25 | 28.38657 | 46.31726 | 35031 ft | 540 kts | 83° |
| 2026-05-03 22:25 | 28.39786 | 46.40192 | 35032 ft | 542 kts | 82° |
| 2026-05-03 22:26 | 28.40985 | 46.48637 | 35025 ft | 543 kts | 82° |
| 2026-05-03 22:26 | 28.42204 | 46.57142 | 35030 ft | 544 kts | 82° |
| 2026-05-03 22:27 | 28.43402 | 46.65597 | 35026 ft | 545 kts | 82° |
| 2026-05-03 22:27 | 28.44597 | 46.74098 | 35031 ft | 545 kts | 82° |
| 2026-05-03 22:28 | 28.45794 | 46.82644 | 35021 ft | 545 kts | 82° |
| 2026-05-03 22:28 | 28.46973 | 46.91116 | 35016 ft | 545 kts | 82° |
| 2026-05-03 22:29 | 28.48142 | 46.99582 | 35006 ft | 544 kts | 82° |
| 2026-05-03 22:29 | 28.49308 | 47.08095 | 35009 ft | 543 kts | 82° |
| 2026-05-03 22:30 | 28.50464 | 47.16548 | 35001 ft | 542 kts | 82° |
| 2026-05-03 22:30 | 28.51043 | 47.20801 | 34694 ft | 544 kts | 82° |
| 2026-05-03 22:30 | 28.51620 | 47.25047 | 34266 ft | 541 kts | 82° |
| 2026-05-03 22:30 | 28.52193 | 47.29272 | 33800 ft | 537 kts | 82° |
| 2026-05-03 22:31 | 28.52758 | 47.33460 | 33432 ft | 531 kts | 82° |
| 2026-05-03 22:31 | 28.53311 | 47.37543 | 33101 ft | 524 kts | 82° |
| 2026-05-03 22:31 | 28.53862 | 47.41632 | 32701 ft | 519 kts | 82° |
| 2026-05-03 22:31 | 28.54407 | 47.45691 | 32261 ft | 516 kts | 82° |
| 2026-05-03 22:32 | 28.54946 | 47.49725 | 31801 ft | 513 kts | 82° |
| 2026-05-03 22:32 | 28.55474 | 47.53679 | 31289 ft | 511 kts | 82° |
| 2026-05-03 22:32 | 28.56009 | 47.57686 | 30548 ft | 515 kts | 82° |
| 2026-05-03 22:32 | 28.56550 | 47.61753 | 29789 ft | 518 kts | 82° |
| 2026-05-03 22:33 | 28.57069 | 47.65813 | 29028 ft | 516 kts | 86° |
| 2026-05-03 22:33 | 28.56882 | 47.69863 | 28436 ft | 506 kts | 108° |
| 2026-05-03 22:33 | 28.55579 | 47.73407 | 28305 ft | 480 kts | 129° |
| 2026-05-03 22:33 | 28.53420 | 47.76119 | 28208 ft | 447 kts | 151° |
| 2026-05-03 22:34 | 28.50771 | 47.77678 | 28067 ft | 413 kts | 172° |
| 2026-05-03 22:34 | 28.48017 | 47.78355 | 27711 ft | 399 kts | 180° |
| 2026-05-03 22:34 | 28.45307 | 47.78716 | 27200 ft | 396 kts | 182° |
| 2026-05-03 22:34 | 28.42563 | 47.78944 | 26568 ft | 395 kts | 185° |
| 2026-05-03 22:35 | 28.39823 | 47.78818 | 25893 ft | 391 kts | 194° |
| 2026-05-03 22:35 | 28.37199 | 47.78073 | 25223 ft | 384 kts | 207° |
| 2026-05-03 22:35 | 28.34882 | 47.76678 | 24562 ft | 379 kts | 219° |
| 2026-05-03 22:35 | 28.32890 | 47.74729 | 23904 ft | 377 kts | 230° |
| 2026-05-03 22:36 | 28.31239 | 47.72403 | 23238 ft | 377 kts | 237° |
| 2026-05-03 22:36 | 28.30275 | 47.70754 | 22798 ft | 378 kts | 240° |
| 2026-05-03 22:36 | 28.29057 | 47.68114 | 22138 ft | 378 kts | 250° |
| 2026-05-03 22:36 | 28.28371 | 47.64385 | 21183 ft | 354 kts | 262° |
| 2026-05-03 22:37 | 28.28038 | 47.61665 | 20492 ft | 339 kts | 262° |
| 2026-05-03 22:37 | 28.27689 | 47.59064 | 19880 ft | 325 kts | 261° |
| 2026-05-03 22:37 | 28.27461 | 47.57419 | 19613 ft | 312 kts | 261° |
| 2026-05-03 22:37 | 28.27132 | 47.55065 | 19220 ft | 294 kts | 262° |
| 2026-05-03 22:38 | 28.26816 | 47.52814 | 18691 ft | 282 kts | 262° |
| 2026-05-03 22:38 | 28.26512 | 47.50648 | 18097 ft | 274 kts | 262° |
| 2026-05-03 22:38 | 28.26212 | 47.48514 | 17352 ft | 272 kts | 262° |
| 2026-05-03 22:38 | 28.25918 | 47.46424 | 16557 ft | 272 kts | 262° |
| 2026-05-03 22:39 | 28.25613 | 47.44252 | 15966 ft | 279 kts | 262° |
| 2026-05-03 22:39 | 28.25308 | 47.42091 | 15616 ft | 276 kts | 264° |
| 2026-05-03 22:39 | 28.25330 | 47.39970 | 15289 ft | 272 kts | 281° |
| 2026-05-03 22:39 | 28.25791 | 47.37829 | 15055 ft | 287 kts | 286° |
| 2026-05-03 22:40 | 28.26368 | 47.35610 | 14717 ft | 294 kts | 288° |
| 2026-05-03 22:40 | 28.27350 | 47.33611 | 14310 ft | 293 kts | 315° |
| 2026-05-03 22:40 | 28.29113 | 47.32454 | 14006 ft | 297 kts | 340° |
| 2026-05-03 22:40 | 28.31182 | 47.32144 | 13663 ft | 304 kts | 0° |
| 2026-05-03 22:41 | 28.33246 | 47.32675 | 13322 ft | 312 kts | 20° |
| 2026-05-03 22:41 | 28.35082 | 47.34024 | 12963 ft | 320 kts | 43° |
| 2026-05-03 22:41 | 28.36508 | 47.35967 | 12645 ft | 320 kts | 49° |
| 2026-05-03 22:41 | 28.37871 | 47.37975 | 12293 ft | 320 kts | 49° |
| 2026-05-03 22:42 | 28.39210 | 47.39962 | 11944 ft | 320 kts | 49° |
| 2026-05-03 22:42 | 28.40575 | 47.41976 | 11553 ft | 322 kts | 49° |
| 2026-05-03 22:42 | 28.41948 | 47.43987 | 11280 ft | 319 kts | 49° |
| 2026-05-03 22:42 | 28.43295 | 47.45946 | 10984 ft | 315 kts | 49° |
| 2026-05-03 22:43 | 28.44639 | 47.47893 | 10709 ft | 311 kts | 49° |
| 2026-05-03 22:43 | 28.45974 | 47.49823 | 10434 ft | 307 kts | 49° |
| 2026-05-03 22:43 | 28.47288 | 47.51721 | 10135 ft | 303 kts | 49° |
| 2026-05-03 22:43 | 28.48573 | 47.53577 | 9860 ft | 300 kts | 49° |
| 2026-05-03 22:44 | 28.49867 | 47.55447 | 9582 ft | 298 kts | 49° |
| 2026-05-03 22:44 | 28.51150 | 47.57298 | 9322 ft | 296 kts | 49° |
| 2026-05-03 22:44 | 28.52419 | 47.59128 | 9117 ft | 291 kts | 49° |
| 2026-05-03 22:44 | 28.53646 | 47.60903 | 8905 ft | 289 kts | 49° |
| 2026-05-03 22:45 | 28.54904 | 47.62719 | 8702 ft | 292 kts | 49° |
| 2026-05-03 22:45 | 28.56153 | 47.64530 | 8510 ft | 293 kts | 51° |
| 2026-05-03 22:45 | 28.57163 | 47.66565 | 8307 ft | 298 kts | 66° |
| 2026-05-03 22:45 | 28.57742 | 47.68837 | 8123 ft | 301 kts | 76° |
| 2026-05-03 22:46 | 28.58128 | 47.71203 | 7928 ft | 302 kts | 78° |
| 2026-05-03 22:46 | 28.58478 | 47.73564 | 7730 ft | 302 kts | 78° |
| 2026-05-03 22:46 | 28.58833 | 47.75919 | 7523 ft | 299 kts | 78° |
| 2026-05-03 22:46 | 28.59191 | 47.78206 | 7326 ft | 295 kts | 78° |
| 2026-05-03 22:47 | 28.59562 | 47.80510 | 7110 ft | 292 kts | 77° |
| 2026-05-03 22:47 | 28.59931 | 47.82756 | 6903 ft | 287 kts | 77° |
| 2026-05-03 22:47 | 28.60295 | 47.84951 | 6656 ft | 272 kts | 77° |
| 2026-05-03 22:47 | 28.60630 | 47.86971 | 6406 ft | 254 kts | 77° |
| 2026-05-03 22:48 | 28.60949 | 47.88885 | 6137 ft | 236 kts | 77° |
| 2026-05-03 22:48 | 28.61247 | 47.90687 | 5977 ft | 227 kts | 77° |
| 2026-05-03 22:48 | 28.61536 | 47.92426 | 5837 ft | 223 kts | 77° |
| 2026-05-03 22:48 | 28.61859 | 47.94133 | 5620 ft | 217 kts | 66° |
| 2026-05-03 22:49 | 28.62721 | 47.95464 | 5341 ft | 206 kts | 32° |
| 2026-05-03 22:49 | 28.64012 | 47.96122 | 5194 ft | 205 kts | 10° |
| 2026-05-03 22:49 | 28.65420 | 47.96392 | 5033 ft | 210 kts | 6° |
| 2026-05-03 22:49 | 28.66882 | 47.96605 | 4829 ft | 210 kts | 5° |
| 2026-05-03 22:50 | 28.68325 | 47.96804 | 4687 ft | 207 kts | 5° |
| 2026-05-03 22:50 | 28.69750 | 47.97008 | 4536 ft | 204 kts | 6° |
| 2026-05-03 22:50 | 28.71129 | 47.97209 | 4394 ft | 201 kts | 6° |
| 2026-05-03 22:50 | 28.72540 | 47.97417 | 4295 ft | 205 kts | 6° |
| 2026-05-03 22:51 | 28.73961 | 47.97624 | 4207 ft | 210 kts | 6° |
| 2026-05-03 22:51 | 28.75416 | 47.97840 | 4070 ft | 210 kts | 6° |
| 2026-05-03 22:51 | 28.76861 | 47.98056 | 3978 ft | 206 kts | 6° |
| 2026-05-03 22:51 | 28.78277 | 47.98269 | 3901 ft | 204 kts | 6° |
| 2026-05-03 22:52 | 28.79661 | 47.98478 | 3774 ft | 200 kts | 6° |
| 2026-05-03 22:52 | 28.81061 | 47.98690 | 3772 ft | 204 kts | 6° |
| 2026-05-03 22:52 | 28.82481 | 47.98904 | 3658 ft | 209 kts | 6° |
| 2026-05-03 22:52 | 28.83923 | 47.99122 | 3573 ft | 208 kts | 6° |
| 2026-05-03 22:53 | 28.85363 | 47.99342 | 3516 ft | 209 kts | 6° |
| 2026-05-03 22:53 | 28.86798 | 47.99556 | 3367 ft | 210 kts | 6° |
| 2026-05-03 22:53 | 28.88243 | 47.99777 | 3196 ft | 206 kts | 6° |
| 2026-05-03 22:53 | 28.89640 | 47.99993 | 3086 ft | 204 kts | 6° |
| 2026-05-03 22:54 | 28.91049 | 48.00211 | 2940 ft | 203 kts | 6° |
| 2026-05-03 22:54 | 28.92451 | 48.00426 | 2877 ft | 202 kts | 6° |
| 2026-05-03 22:54 | 28.93839 | 48.00636 | 2859 ft | 204 kts | 6° |
| 2026-05-03 22:54 | 28.95249 | 48.00849 | 2848 ft | 205 kts | 6° |
| 2026-05-03 22:55 | 28.96663 | 48.01065 | 2824 ft | 204 kts | 6° |
| 2026-05-03 22:55 | 28.98127 | 48.01287 | 2836 ft | 219 kts | 6° |
| 2026-05-03 22:55 | 28.99638 | 48.01523 | 2833 ft | 222 kts | 6° |
| 2026-05-03 22:55 | 29.01155 | 48.01728 | 2780 ft | 215 kts | 6° |
| 2026-05-03 22:56 | 29.02607 | 48.01956 | 2764 ft | 208 kts | 6° |
| 2026-05-03 22:56 | 29.04050 | 48.02186 | 2496 ft | 211 kts | 6° |
| 2026-05-03 22:56 | 29.05515 | 48.02415 | 2242 ft | 207 kts | 6° |
| 2026-05-03 22:56 | 29.06926 | 48.02406 | 2157 ft | 202 kts | 341° |
| 2026-05-03 22:57 | 29.08244 | 48.01874 | 2187 ft | 207 kts | 338° |
| 2026-05-03 22:57 | 29.09548 | 48.01252 | 2167 ft | 196 kts | 334° |
| 2026-05-03 22:57 | 29.10758 | 48.00614 | 1987 ft | 187 kts | 334° |
| 2026-05-03 22:57 | 29.11911 | 47.99998 | 1732 ft | 179 kts | 333° |
| 2026-05-03 22:58 | 29.13035 | 47.99397 | 1480 ft | 179 kts | 333° |
| 2026-05-03 22:58 | 29.14184 | 47.98788 | 1271 ft | 183 kts | 334° |
| 2026-05-03 22:58 | 29.15321 | 47.98181 | 1013 ft | 182 kts | 334° |
| 2026-05-03 22:58 | 29.16446 | 47.97582 | 788 ft | 178 kts | 334° |
| 2026-05-03 22:59 | 29.17563 | 47.96987 | 560 ft | 178 kts | 335° |
| 2026-05-03 22:59 | 29.18691 | 47.96388 | 314 ft | 176 kts | 335° |
| 2026-05-03 22:59 | 29.19769 | 47.95813 | 223 ft | 161 kts | 335° |
| 2026-05-03 22:59 | 29.20689 | 47.95322 | 222 ft | 130 kts | 335° |
| 2026-05-03 23:00 | 29.21371 | 47.94958 | 225 ft | 92 kts | 335° |
| 2026-05-03 23:00 | 29.21930 | 47.94680 | 224 ft | 83 kts | 344° |
| 2026-05-03 23:00 | 29.22332 | 47.94672 | 203 ft | 79 kts | 35° |
| 2026-05-03 23:00 | 29.22613 | 47.94980 | 165 ft | 72 kts | 14° |
| 2026-05-03 23:01 | 29.22858 | 47.94748 | 166 ft | 59 kts | 262° |
| 2026-05-03 23:01 | 29.22620 | 47.94621 | 170 ft | 44 kts | 144° |
| 2026-05-03 23:01 | 29.22576 | 47.94696 | 167 ft | 0 kts | 81° |
| 2026-05-03 23:01 | 29.23625 | 47.96771 | 174 ft | 0 kts | 336° |